createdAt,value
2019-05-09T00:01:14.317Z,77.10
2019-05-09T00:03:44.265Z,77.00
2019-05-09T00:06:13.905Z,77.10
2019-05-09T00:08:44.127Z,77.00
2019-05-09T00:11:14.731Z,77.20
2019-05-09T00:13:44.105Z,77.00
2019-05-09T00:16:14.573Z,76.90
2019-05-09T00:18:44.153Z,77.30
2019-05-09T00:21:17.413Z,77.70
2019-05-09T00:23:46.369Z,77.50
2019-05-09T00:26:15.285Z,77.70
2019-05-09T00:28:45.584Z,77.70
2019-05-09T00:31:18.659Z,77.80
2019-05-09T00:33:48.968Z,77.70
2019-05-09T00:36:18.083Z,77.40
2019-05-09T00:38:46.909Z,77.70
2019-05-09T00:41:15.826Z,77.70
2019-05-09T00:43:49.371Z,77.40
2019-05-09T00:46:23.661Z,77.60
2019-05-09T00:49:05.031Z,77.60
2019-05-09T00:51:33.974Z,77.40
2019-05-09T00:54:04.175Z,77.40
2019-05-09T00:56:33.279Z,77.40
2019-05-09T00:59:04.224Z,77.60
2019-05-09T01:01:34.219Z,77.40
2019-05-09T01:04:04.360Z,77.70
2019-05-09T01:06:34.150Z,77.90
2019-05-09T01:09:04.207Z,77.80
2019-05-09T01:11:33.374Z,77.90
2019-05-09T01:14:03.592Z,77.90
2019-05-09T01:16:33.472Z,78.00
2019-05-09T01:19:03.552Z,77.90
2019-05-09T01:21:33.460Z,77.80
2019-05-09T01:24:04.501Z,78.00
2019-05-09T01:26:33.537Z,78.10
2019-05-09T01:29:04.146Z,78.10
2019-05-09T01:31:33.262Z,78.20
2019-05-09T01:34:04.271Z,78.10
2019-05-09T01:36:51.014Z,78.30
2019-05-09T01:39:19.615Z,78.40
2019-05-09T01:41:48.419Z,78.40
2019-05-09T01:44:17.051Z,78.60
2019-05-09T01:46:45.619Z,78.70
2019-05-09T01:49:14.430Z,79.10
2019-05-09T01:51:44.477Z,79.10
2019-05-09T01:54:14.838Z,79.20
2019-05-09T01:56:43.549Z,79.30
2019-05-09T01:59:13.642Z,79.50
2019-05-09T02:01:43.540Z,79.50
2019-05-09T02:04:13.703Z,79.40
2019-05-09T02:06:44.051Z,79.60
2019-05-09T02:09:14.013Z,79.70
2019-05-09T02:11:45.560Z,79.70
2019-05-09T02:14:14.791Z,79.90
2019-05-09T02:17:03.207Z,80.80
2019-05-09T02:19:33.435Z,80.20
2019-05-09T02:22:03.817Z,80.30
2019-05-09T02:24:33.799Z,80.60
2019-05-09T02:27:03.957Z,80.50
2019-05-09T02:29:33.742Z,80.30
2019-05-09T02:32:04.565Z,80.60
2019-05-09T02:34:35.560Z,80.60
2019-05-09T02:37:03.686Z,80.60
2019-05-09T02:39:32.317Z,80.70
2019-05-09T02:42:09.646Z,80.60
2019-05-09T02:44:33.008Z,80.90
2019-05-09T02:47:03.422Z,80.90
2019-05-09T02:49:32.194Z,81.10
2019-05-09T02:52:01.035Z,81.10
2019-05-09T02:54:31.293Z,81.20
2019-05-09T02:56:59.922Z,81.10
2019-05-09T02:59:39.221Z,80.90
2019-05-09T03:02:12.734Z,80.90
2019-05-09T03:04:41.778Z,80.90
2019-05-09T03:07:10.461Z,80.80
2019-05-09T03:09:39.229Z,80.50
2019-05-09T03:12:22.697Z,80.40
2019-05-09T03:14:38.695Z,80.40
2019-05-09T03:17:08.905Z,80.20
2019-05-09T03:19:38.802Z,80.00
2019-05-09T03:22:09.359Z,79.80
2019-05-09T03:24:39.429Z,79.70
2019-05-09T03:27:12.620Z,79.50
2019-05-09T03:29:48.612Z,79.30
2019-05-09T03:32:19.095Z,79.00
2019-05-09T03:34:50.194Z,78.40
2019-05-09T03:37:19.085Z,78.10
2019-05-09T03:39:47.977Z,78.00
2019-05-09T03:42:21.268Z,77.60
2019-05-09T03:44:59.151Z,77.20
2019-05-09T03:47:29.720Z,77.10
2019-05-09T03:50:09.281Z,76.70
2019-05-09T03:52:38.081Z,76.60
2019-05-09T03:55:12.109Z,76.80
2019-05-09T03:57:42.588Z,76.00
2019-05-09T04:00:12.323Z,75.80
2019-05-09T04:02:41.092Z,75.70
2019-05-09T04:05:09.848Z,75.40
2019-05-09T04:07:38.646Z,75.20
2019-05-09T04:10:07.799Z,76.10
2019-05-09T04:12:37.557Z,74.60
2019-05-09T04:15:08.413Z,74.60
2019-05-09T04:17:43.992Z,74.50
2019-05-09T04:20:17.349Z,74.00
2019-05-09T04:22:45.705Z,73.80
2019-05-09T04:25:17.980Z,73.30
2019-05-09T04:27:48.136Z,71.90
2019-05-09T04:30:18.349Z,71.30
2019-05-09T04:32:48.133Z,68.20
2019-05-09T04:35:17.594Z,67.10
2019-05-09T04:37:48.227Z,65.50
2019-05-09T04:40:17.825Z,63.90
2019-05-09T04:42:47.384Z,62.00
2019-05-09T04:45:33.271Z,60.60
2019-05-09T04:48:00.842Z,59.50
2019-05-09T04:50:29.675Z,57.90
2019-05-09T04:52:58.496Z,58.10
2019-05-09T04:55:29.022Z,57.00
2019-05-09T04:58:00.091Z,57.10
2019-05-09T05:00:30.452Z,57.10
2019-05-09T05:02:59.290Z,57.90
2019-05-09T05:05:28.469Z,57.60
2019-05-09T05:07:57.432Z,55.20
2019-05-09T05:10:27.363Z,55.80
2019-05-09T05:12:57.307Z,57.00
2019-05-09T05:15:27.645Z,56.10
2019-05-09T05:17:58.234Z,56.40
2019-05-09T05:20:28.482Z,54.40
2019-05-09T05:22:59.018Z,54.40
2019-05-09T05:25:28.011Z,53.80
2019-05-09T05:27:58.073Z,52.90
2019-05-09T05:30:28.403Z,53.90
2019-05-09T05:32:59.029Z,55.40
2019-05-09T05:35:29.488Z,54.50
2019-05-09T05:37:58.243Z,56.10
2019-05-09T05:40:32.871Z,55.80
2019-05-09T05:42:58.485Z,55.20
2019-05-09T05:45:29.126Z,54.30
2019-05-09T05:47:59.501Z,52.60
2019-05-09T05:50:28.324Z,53.50
2019-05-09T05:52:57.757Z,52.00
2019-05-09T05:55:27.427Z,51.30
2019-05-09T05:57:57.921Z,51.20
2019-05-09T06:00:28.510Z,50.00
2019-05-09T06:02:58.575Z,49.80
2019-05-09T06:05:27.913Z,50.70
2019-05-09T06:07:57.635Z,50.30
2019-05-09T06:10:28.772Z,50.80
2019-05-09T06:12:57.541Z,51.60
2019-05-09T06:15:28.631Z,50.00
2019-05-09T06:17:57.866Z,49.50
2019-05-09T06:20:28.087Z,48.90
2019-05-09T06:22:58.157Z,50.60
2019-05-09T06:25:30.551Z,51.20
2019-05-09T06:27:58.440Z,50.60
2019-05-09T06:30:30.169Z,49.30
2019-05-09T06:32:59.602Z,49.50
2019-05-09T06:35:29.011Z,47.80
2019-05-09T06:38:15.763Z,47.80
2019-05-09T06:40:44.442Z,48.60
2019-05-09T06:43:18.358Z,49.70
2019-05-09T06:46:01.864Z,51.40
2019-05-09T06:48:30.649Z,50.10
2019-05-09T06:50:59.314Z,50.30
2019-05-09T06:53:27.951Z,50.40
2019-05-09T06:55:57.968Z,50.80
2019-05-09T06:58:40.226Z,49.10
2019-05-09T07:01:22.433Z,48.60
2019-05-09T07:03:52.943Z,48.60
2019-05-09T07:06:28.255Z,47.80
2019-05-09T07:09:12.871Z,49.00
2019-05-09T07:11:41.520Z,49.20
2019-05-09T07:14:25.713Z,48.80
2019-05-09T07:16:42.191Z,49.20
2019-05-09T07:19:10.881Z,49.80
2019-05-09T07:21:58.045Z,49.10
2019-05-09T07:24:28.618Z,48.90
2019-05-09T07:26:58.366Z,48.70
2019-05-09T07:29:29.013Z,47.50
2019-05-09T07:31:59.461Z,47.40
2019-05-09T07:34:29.905Z,46.60
2019-05-09T07:36:58.561Z,47.00
2019-05-09T07:39:27.684Z,47.50
2019-05-09T07:41:58.334Z,47.60
2019-05-09T07:44:33.159Z,48.90
2019-05-09T07:46:58.557Z,48.20
2019-05-09T07:49:28.371Z,50.00
2019-05-09T07:51:59.115Z,48.70
2019-05-09T07:54:29.243Z,48.50
2019-05-09T07:56:58.079Z,48.00
2019-05-09T07:59:27.418Z,47.00
2019-05-09T08:01:58.202Z,45.70
2019-05-09T08:04:28.626Z,45.30
2019-05-09T08:06:57.882Z,47.20
2019-05-09T08:09:28.123Z,46.50
2019-05-09T08:11:58.759Z,46.00
2019-05-09T08:14:28.094Z,45.50
2019-05-09T08:16:58.081Z,46.30
2019-05-09T08:19:27.568Z,46.00
2019-05-09T08:21:57.529Z,44.60
2019-05-09T08:24:27.843Z,44.30
2019-05-09T08:26:58.114Z,44.30
2019-05-09T08:29:28.153Z,44.50
2019-05-09T08:31:58.327Z,45.20
2019-05-09T08:34:28.475Z,45.90
2019-05-09T08:36:58.181Z,43.70
2019-05-09T08:39:27.786Z,41.80
2019-05-09T08:41:59.294Z,42.90
2019-05-09T08:44:30.243Z,42.00
2019-05-09T08:46:57.618Z,43.30
2019-05-09T08:49:28.684Z,42.40
2019-05-09T08:52:15.601Z,42.80
2019-05-09T08:54:42.947Z,43.30
2019-05-09T08:57:11.741Z,44.20
2019-05-09T08:59:40.454Z,44.60
2019-05-09T09:02:15.287Z,42.90
2019-05-09T09:04:40.819Z,41.50
2019-05-09T09:07:09.596Z,41.80
2019-05-09T09:09:38.291Z,43.00
2019-05-09T09:12:23.044Z,43.00
2019-05-09T09:14:38.474Z,42.50
2019-05-09T09:17:07.902Z,43.10
2019-05-09T09:19:38.592Z,44.20
2019-05-09T09:22:08.869Z,43.50
2019-05-09T09:24:37.916Z,43.70
2019-05-09T09:27:07.705Z,42.50
2019-05-09T09:29:38.320Z,43.50
2019-05-09T09:32:08.349Z,44.60
2019-05-09T09:34:37.894Z,44.90
2019-05-09T09:37:11.279Z,45.90
2019-05-09T09:39:44.368Z,45.70
2019-05-09T09:42:09.155Z,45.40
2019-05-09T09:44:39.321Z,45.90
2019-05-09T09:47:08.612Z,46.10
2019-05-09T09:49:38.424Z,46.10
2019-05-09T09:52:08.746Z,46.40
2019-05-09T09:54:38.572Z,46.00
2019-05-09T09:57:09.755Z,46.10
2019-05-09T09:59:48.279Z,44.80
2019-05-09T10:02:17.583Z,45.10
2019-05-09T10:04:46.425Z,45.00
2019-05-09T10:07:15.179Z,45.10
2019-05-09T10:09:43.913Z,45.00
2019-05-09T10:12:12.679Z,44.60
2019-05-09T10:14:43.131Z,44.90
2019-05-09T10:17:13.571Z,44.70
2019-05-09T10:19:53.004Z,45.10
2019-05-09T10:22:25.748Z,44.40
2019-05-09T10:24:53.953Z,44.80
2019-05-09T10:27:22.859Z,44.20
2019-05-09T10:29:51.537Z,43.70
2019-05-09T10:32:21.881Z,43.20
2019-05-09T10:34:50.742Z,43.20
2019-05-09T10:37:19.514Z,41.10
2019-05-09T10:39:49.095Z,42.10
2019-05-09T10:42:19.676Z,42.20
2019-05-09T10:44:58.208Z,43.10
2019-05-09T10:47:28.223Z,42.80
2019-05-09T10:49:58.146Z,42.70
2019-05-09T10:52:28.301Z,42.40
2019-05-09T10:54:58.007Z,43.20
2019-05-09T10:57:31.606Z,42.50
2019-05-09T10:59:57.960Z,42.80
2019-05-09T11:02:27.975Z,42.80
2019-05-09T11:04:57.618Z,42.90
2019-05-09T11:07:28.992Z,43.20
2019-05-09T11:09:58.767Z,43.40
2019-05-09T11:12:27.764Z,42.60
2019-05-09T11:14:59.180Z,42.50
2019-05-09T11:17:28.640Z,43.20
2019-05-09T11:19:58.838Z,41.70
2019-05-09T11:22:29.210Z,42.50
2019-05-09T11:24:58.207Z,42.10
2019-05-09T11:27:28.983Z,42.90
2019-05-09T11:29:57.953Z,42.80
2019-05-09T11:32:27.695Z,43.00
2019-05-09T11:34:57.694Z,42.60
2019-05-09T11:37:26.594Z,42.80
2019-05-09T11:39:57.850Z,43.70
2019-05-09T11:42:25.901Z,43.20
2019-05-09T11:44:54.527Z,44.00
2019-05-09T11:47:34.265Z,44.60
2019-05-09T11:49:54.347Z,45.00
2019-05-09T11:52:23.236Z,44.90
2019-05-09T11:54:52.096Z,45.00
2019-05-09T11:57:20.780Z,44.90
2019-05-09T11:59:49.524Z,44.50
2019-05-09T12:02:18.364Z,44.30
2019-05-09T12:04:48.704Z,44.50
2019-05-09T12:07:18.015Z,45.00
2019-05-09T12:09:48.846Z,44.70
2019-05-09T12:12:19.342Z,45.00
2019-05-09T12:14:48.363Z,45.20
2019-05-09T12:17:19.685Z,44.90
2019-05-09T12:19:48.946Z,45.00
2019-05-09T12:22:19.062Z,44.80
2019-05-09T12:24:48.712Z,43.90
2019-05-09T12:27:18.772Z,44.50
2019-05-09T12:29:48.415Z,44.30
2019-05-09T12:32:18.633Z,44.80
2019-05-09T12:34:48.022Z,45.00
2019-05-09T12:37:18.241Z,44.90
2019-05-09T12:39:48.098Z,43.50
2019-05-09T12:42:18.475Z,43.30
2019-05-09T12:44:49.651Z,43.30
2019-05-09T12:47:19.017Z,44.40
2019-05-09T12:49:48.801Z,45.00
2019-05-09T12:52:18.586Z,45.60
2019-05-09T12:54:48.299Z,45.70
2019-05-09T12:57:19.261Z,46.00
2019-05-09T12:59:52.474Z,45.70
2019-05-09T13:02:18.216Z,45.50
2019-05-09T13:04:47.614Z,45.80
2019-05-09T13:07:16.940Z,46.40
2019-05-09T13:09:52.228Z,47.00
2019-05-09T13:12:18.101Z,47.50
2019-05-09T13:14:48.576Z,47.80
2019-05-09T13:17:27.132Z,48.00
2019-05-09T13:19:55.776Z,48.20
2019-05-09T13:22:25.003Z,50.00
2019-05-09T13:24:53.728Z,51.60
2019-05-09T13:27:22.520Z,52.50
2019-05-09T13:29:51.328Z,53.50
2019-05-09T13:32:20.285Z,53.70
2019-05-09T13:34:49.262Z,53.40
2019-05-09T13:37:18.796Z,54.20
2019-05-09T13:39:48.108Z,53.80
2019-05-09T13:42:19.637Z,53.80
2019-05-09T13:44:47.591Z,53.50
2019-05-09T13:47:17.947Z,54.10
2019-05-09T13:49:48.427Z,53.70
2019-05-09T13:52:17.914Z,54.30
2019-05-09T13:54:48.354Z,54.60
2019-05-09T13:57:18.783Z,54.80
2019-05-09T13:59:48.587Z,55.10
2019-05-09T14:02:18.734Z,55.30
2019-05-09T14:04:48.796Z,55.20
2019-05-09T14:07:19.272Z,54.80
2019-05-09T14:09:48.667Z,55.40
2019-05-09T14:12:17.846Z,55.30
2019-05-09T14:14:46.516Z,55.70
2019-05-09T14:17:18.645Z,56.30
2019-05-09T14:19:50.174Z,56.30
2019-05-09T14:22:17.904Z,56.60
2019-05-09T14:24:48.401Z,56.80
2019-05-09T14:27:18.740Z,57.40
2019-05-09T14:29:49.730Z,56.90
2019-05-09T14:32:18.081Z,57.20
2019-05-09T14:34:48.211Z,57.10
2019-05-09T14:37:18.044Z,57.70
2019-05-09T14:39:55.866Z,58.20
2019-05-09T14:42:18.818Z,58.50
2019-05-09T14:44:48.042Z,59.40
2019-05-09T14:47:20.053Z,59.50
2019-05-09T14:49:50.385Z,59.70
2019-05-09T14:52:19.411Z,61.30
2019-05-09T14:54:48.403Z,60.40
2019-05-09T14:57:17.582Z,61.00
2019-05-09T14:59:46.362Z,60.70
2019-05-09T15:02:17.744Z,61.10
2019-05-09T15:04:45.653Z,61.80
2019-05-09T15:07:14.500Z,62.30
2019-05-09T15:09:43.158Z,62.20
2019-05-09T15:12:11.818Z,62.30
2019-05-09T15:14:40.590Z,61.70
2019-05-09T15:17:09.471Z,61.80
2019-05-09T15:19:38.696Z,62.00
2019-05-09T15:22:08.463Z,63.20
2019-05-09T15:24:38.832Z,63.40
2019-05-09T15:27:08.044Z,62.90
2019-05-09T15:29:39.135Z,62.40
2019-05-09T15:32:12.033Z,62.80
2019-05-09T15:34:38.306Z,63.80
2019-05-09T15:37:08.852Z,62.50
2019-05-09T15:39:38.138Z,62.70
2019-05-09T15:42:07.477Z,62.70
2019-05-09T15:44:36.547Z,62.10
2019-05-09T15:47:07.559Z,61.90
2019-05-09T15:49:38.536Z,62.00
2019-05-09T15:52:07.427Z,61.80
2019-05-09T15:54:38.647Z,61.50
2019-05-09T15:57:08.652Z,61.50
2019-05-09T15:59:39.037Z,61.90
2019-05-09T16:02:09.148Z,61.80
2019-05-09T16:04:40.099Z,62.30
2019-05-09T16:07:08.872Z,63.10
2019-05-09T16:09:37.908Z,65.10
2019-05-09T16:12:07.940Z,65.90
2019-05-09T16:14:38.096Z,66.20
2019-05-09T16:17:07.894Z,67.60
2019-05-09T16:19:38.568Z,67.90
2019-05-09T16:22:08.006Z,69.40
2019-05-09T16:24:38.072Z,68.60
2019-05-09T16:27:08.448Z,68.90
2019-05-09T16:29:38.288Z,69.20
2019-05-09T16:32:08.803Z,68.40
2019-05-09T16:34:38.668Z,69.00
2019-05-09T16:37:07.795Z,69.40
2019-05-09T16:39:37.871Z,69.90
2019-05-09T16:42:07.020Z,70.00
2019-05-09T16:44:37.781Z,70.60
2019-05-09T16:47:08.364Z,70.70
2019-05-09T16:49:38.770Z,71.30
2019-05-09T16:52:07.537Z,70.60
2019-05-09T16:54:38.767Z,70.90
2019-05-09T16:57:08.312Z,71.10
2019-05-09T16:59:38.844Z,71.70
2019-05-09T17:02:18.868Z,72.30
2019-05-09T17:04:38.782Z,72.90
2019-05-09T17:07:08.368Z,73.40
2019-05-09T17:09:40.357Z,73.80
2019-05-09T17:12:09.385Z,74.30
2019-05-09T17:14:38.197Z,74.60
2019-05-09T17:17:08.404Z,75.10
2019-05-09T17:19:37.814Z,75.20
2019-05-09T17:22:08.448Z,75.40
2019-05-09T17:24:38.119Z,75.60
2019-05-09T17:27:12.676Z,76.10
2019-05-09T17:29:42.029Z,76.90
2019-05-09T17:32:11.010Z,77.60
2019-05-09T17:34:42.270Z,79.10
2019-05-09T17:37:10.295Z,80.10
2019-05-09T17:39:39.210Z,79.40
2019-05-09T17:42:07.918Z,80.80
2019-05-09T17:44:36.753Z,81.40
2019-05-09T17:47:08.159Z,81.00
2019-05-09T17:49:37.516Z,81.80
2019-05-09T17:52:07.619Z,81.60
2019-05-09T17:54:37.914Z,81.60
2019-05-09T17:57:07.954Z,82.00
2019-05-09T17:59:39.247Z,82.40
2019-05-09T18:02:08.690Z,82.30
2019-05-09T18:04:38.021Z,82.40
2019-05-09T18:07:08.755Z,82.50
2019-05-09T18:09:37.424Z,83.00
2019-05-09T18:12:08.242Z,83.10
2019-05-09T18:14:38.312Z,82.40
2019-05-09T18:17:07.422Z,82.20
2019-05-09T18:19:38.091Z,82.40
2019-05-09T18:22:30.640Z,82.80
2019-05-09T18:24:59.352Z,83.30
2019-05-09T18:27:28.306Z,83.60
2019-05-09T18:29:58.250Z,83.80
2019-05-09T18:32:41.207Z,83.50
2019-05-09T18:35:16.114Z,83.40
2019-05-09T18:37:44.978Z,83.70
2019-05-09T18:40:17.913Z,84.00
2019-05-09T18:42:47.545Z,84.70
2019-05-09T18:45:17.869Z,85.30
2019-05-09T18:47:48.213Z,85.10
2019-05-09T18:50:17.722Z,85.20
2019-05-09T18:52:46.724Z,84.90
2019-05-09T18:55:17.502Z,84.80
2019-05-09T18:57:46.253Z,84.90
2019-05-09T19:00:20.564Z,85.40
2019-05-09T19:02:49.883Z,85.40
2019-05-09T19:05:19.802Z,85.30
2019-05-09T19:07:48.593Z,85.90
2019-05-09T19:10:17.586Z,86.10
2019-05-09T19:12:46.473Z,86.10
2019-05-09T19:15:26.183Z,86.10
2019-05-09T19:17:56.702Z,86.20
2019-05-09T19:20:36.334Z,86.20
2019-05-09T19:23:05.216Z,85.70
2019-05-09T19:25:35.047Z,85.50
2019-05-09T19:28:04.176Z,85.90
2019-05-09T19:30:33.426Z,85.70
2019-05-09T19:33:02.246Z,85.50
2019-05-09T19:35:31.063Z,85.90
2019-05-09T19:37:59.801Z,85.80
2019-05-09T19:40:28.527Z,85.80
2019-05-09T19:42:57.328Z,85.50
2019-05-09T19:45:46.524Z,85.70
2019-05-09T19:48:15.313Z,85.40
2019-05-09T19:50:45.246Z,85.50
2019-05-09T19:53:14.338Z,85.40
2019-05-09T19:55:45.852Z,85.40
2019-05-09T19:58:14.842Z,85.40
2019-05-09T20:00:43.645Z,85.30
2019-05-09T20:03:12.582Z,85.90
2019-05-09T20:05:41.313Z,85.80
2019-05-09T20:08:10.212Z,86.50
2019-05-09T20:10:57.080Z,86.10
2019-05-09T20:13:30.391Z,86.40
2019-05-09T20:15:59.142Z,86.10
2019-05-09T20:18:28.018Z,86.30
2019-05-09T20:20:57.110Z,85.70
2019-05-09T20:23:26.257Z,85.40
2019-05-09T20:25:55.374Z,85.20
2019-05-09T20:28:24.468Z,85.20
2019-05-09T20:30:55.887Z,85.30
2019-05-09T20:33:24.592Z,85.10
2019-05-09T20:35:56.783Z,85.60
2019-05-09T20:38:37.122Z,85.70
2019-05-09T20:41:06.236Z,85.90
2019-05-09T20:43:36.697Z,86.20
2019-05-09T20:46:10.213Z,86.40
2019-05-09T20:48:50.822Z,86.40
2019-05-09T20:51:28.949Z,86.60
2019-05-09T20:54:19.942Z,86.80
2019-05-09T20:59:17.775Z,87.10
2019-05-09T21:01:59.423Z,87.70
2019-05-09T21:04:33.293Z,88.20
2019-05-09T21:07:04.331Z,88.70
2019-05-09T21:09:39.568Z,89.20
2019-05-09T21:12:11.186Z,88.70
2019-05-09T21:14:39.920Z,88.50
2019-05-09T21:17:08.910Z,89.00
2019-05-09T21:19:39.055Z,88.80
2019-05-09T21:22:08.022Z,89.70
2019-05-09T21:24:36.943Z,89.20
2019-05-09T21:27:05.941Z,89.60
2019-05-09T21:29:34.744Z,89.20
2019-05-09T21:32:03.823Z,89.30
2019-05-09T21:34:32.798Z,89.10
2019-05-09T21:37:01.587Z,88.90
2019-05-09T21:39:33.123Z,89.50
2019-05-09T21:42:07.787Z,89.90
2019-05-09T21:44:36.639Z,89.60
2019-05-09T21:47:05.423Z,90.10
2019-05-09T21:49:34.169Z,90.10
2019-05-09T21:52:03.083Z,90.10
2019-05-09T21:54:31.731Z,90.40
2019-05-09T21:57:00.599Z,90.00
2019-05-09T21:59:29.524Z,90.10
2019-05-09T22:02:02.143Z,90.20
2019-05-09T22:04:35.991Z,90.30
2019-05-09T22:07:09.250Z,90.50
2019-05-09T22:09:38.191Z,90.50
2019-05-09T22:12:07.050Z,90.20
2019-05-09T22:14:36.050Z,90.30
2019-05-09T22:17:06.585Z,90.20
2019-05-09T22:19:35.771Z,90.50
2019-05-09T22:22:04.788Z,90.50
2019-05-09T22:24:33.633Z,90.50
2019-05-09T22:27:02.284Z,90.30
2019-05-09T22:29:35.221Z,90.20
2019-05-09T22:32:09.941Z,90.30
2019-05-09T22:34:38.650Z,90.40
2019-05-09T22:37:11.617Z,90.50
2019-05-09T22:39:43.394Z,90.70
2019-05-09T22:42:12.268Z,90.70
2019-05-09T22:44:41.007Z,90.80
2019-05-09T22:47:09.912Z,90.80
2019-05-09T22:49:38.807Z,90.80
2019-05-09T22:52:08.659Z,91.00
2019-05-09T22:54:37.519Z,91.00
2019-05-09T22:57:07.248Z,91.40
2019-05-09T22:59:36.059Z,91.40
2019-05-09T23:02:07.013Z,91.30
2019-05-09T23:04:35.372Z,91.50
2019-05-09T23:07:04.548Z,91.30
2019-05-09T23:09:33.449Z,91.40
2019-05-09T23:12:02.238Z,91.50
2019-05-09T23:14:31.025Z,91.50
2019-05-09T23:17:00.739Z,91.50
2019-05-09T23:19:29.519Z,91.80
2019-05-09T23:21:58.271Z,91.90
2019-05-09T23:24:31.509Z,92.10
2019-05-09T23:27:00.232Z,92.10
2019-05-09T23:29:28.944Z,92.10
2019-05-09T23:32:05.600Z,92.40
2019-05-09T23:34:34.608Z,92.70
2019-05-09T23:37:03.542Z,92.60
2019-05-09T23:39:36.652Z,92.70
2019-05-09T23:42:05.633Z,92.80
2019-05-09T23:44:34.462Z,92.90
2019-05-09T23:47:03.530Z,92.90
2019-05-09T23:49:32.108Z,93.20
2019-05-09T23:52:00.865Z,93.30
2019-05-09T23:54:48.112Z,93.50
2019-05-09T23:57:35.401Z,93.40
